x

Corpus Christi, Tx - 60nm Sse Of Corpus Christi, Tx (42020) Wave Buoy

3:50am - Wed 2nd Sep 2015 All times are CDT. -5 hours from GMT.

  • Sig Wave height 3.3ft
  • Swell Direction
  • Peak Period 5s
  • Average Period 4s
  • Wind
    13mph, 16mph gusts
  • Sea Temp 84°f
  • Air Temp 83°f
  • Sea Pressure 1014.2mb
  • Corpus Christi, Tx - 60nm Sse Of Corpus Christi, Tx
  • Corpus Christi, Tx - 60nm Sse Of Corpus Christi, Tx

More Historic Weather Station data

Upgrade to MSW Pro to gain access to the past 30 days of data for over 8000 Wavebouys and Weather Stations around the globe.

Join Pro

Comparision Forecast

View Surf forecast
   
Wed 09/02 3:50am 3.5ft 5s 4s 13 16 mph 1014.2mb 84f 83f
2:50am 3.5ft 6s 4s 13 16 mph 1015mb 84f 83f
1:50am 3.5ft 6s 4s 16 18 mph 1015.2mb 84f 83f
12:50am 3.5ft 6s 5s 16 18 mph 1015.5mb 84f 83f
Tue 09/01 11:50pm 3.5ft 6s 4s 13 16 mph 1015.3mb 84f 82f
10:50pm 3.5ft 6s 4s 13 18 mph 1015mb 84f 82f
9:50pm 3.5ft 5s 4s 13 16 mph 1014.7mb 84f 82f
8:50pm 3.5ft 5s 4s 16 18 mph 1013.9mb 84f 82f
7:50pm 3.5ft 5s 4s 16 20 mph 1013.7mb 84f 82f
6:50pm 3.5ft 6s 4s 18 27 mph 1013.7mb 84f 81f
5:50pm 4ft 5s 4s 18 20 mph 1013.5mb 84f 81f
4:50pm 4ft 5s 4s 18 20 mph 1013.9mb 84f 82f
3:50pm 3.5ft 5s 4s 18 20 mph 1013.9mb 84f 82f
2:50pm 3.5ft 5s 4s 18 22 mph 1014.3mb 84f 82f
1:50pm 3.5ft 6s 4s 16 18 mph 1014.7mb 84f 82f
12:50pm 3.5ft 5s 4s 16 18 mph 1014.4mb 84f 81f
11:50am 4ft 5s 4s 18 20 mph 1014.9mb 84f 81f
10:50am 4.5ft 5s 4s 20 22 mph 1015.6mb 84f 79f
9:50am 4ft 5s 4s 22 25 mph 1015.4mb 84f 79f
8:50am 3ft 5s 4s 22 27 mph 1015.2mb 84f 78f
7:50am 2.5ft 5s 4s 13 16 mph 1014.9mb 84f 76f
6:50am 2.5ft 5s 4s 7 9 mph 1016.1mb 84f 74f
5:50am 3.5ft 5s 4s 13 16 mph 1015.5mb 84f 76f
4:50am 3.5ft 5s 4s 18 25 mph 1013.9mb 84f 75f
3:50am 3.5ft 5s 4s 22 25 mph 1013.1mb 84f 81f
2:50am 2.5ft 5s 4s 34 45 mph 1013mb 84f 80f
1:50am 3ft 5s 4s 16 18 mph 1013.9mb 84f 84f
12:50am 2.5ft 5s 4s 16 20 mph 1014.9mb 84f 84f
Mon 08/31 11:50pm 2.5ft 5s 4s 18 20 mph 1014.9mb 84f 84f
10:50pm 2.5ft 5s 4s 18 20 mph 1014.3mb 85f 84f
9:50pm 2ft 5s 4s 16 18 mph 1013.8mb 85f 84f
8:50pm 2ft 4s 4s 13 16 mph 1013.6mb 85f 82f
7:50pm 2ft 4s 4s 13 16 mph 1013.3mb 85f 82f
6:50pm 2ft 5s 4s 9 13 mph 1013.5mb 85f 83f
5:50pm 2.5ft 5s 4s 9 11 mph 1013.9mb 85f 83f
4:50pm 2.5ft 5s 4s 11
mph
1014.3mb 85f 83f
3:50pm 2.5ft 5s 4s 13 16 mph 1015mb 85f 83f
2:50pm 2.5ft 5s 4s 13 18 mph 1014.8mb 85f 83f
1:50pm 2.5ft 5s 4s 13 16 mph 1015.2mb 85f 82f
12:50pm 2ft 5s 4s 18 22 mph 1015.8mb 85f 81f
11:50am 1.6ft 4s 4s 11 13 mph 1015.7mb 85f 83f
10:50am 1.6ft 4s 4s 11 13 mph 1015.8mb 85f 83f
9:50am 1.6ft 4s 4s 11
mph
1015.1mb 84f 83f
8:50am 1.6ft 4s 4s 11 13 mph 1015.1mb 84f 83f
7:50am 1.6ft 4s 4s 13 16 mph 1014.4mb 84f 84f
6:50am 1.6ft 4s 3s 11
mph
1013.8mb 84f 83f
5:50am 1.6ft 4s 3s 11 13 mph 1013.3mb 85f 84f
4:50am 1.6ft 4s 3s 9 11 mph 1013.4mb 85f 83f
3:50am 1.6ft 4s 3s 13
mph
1013.4mb 85f 84f
2:50am 1.6ft 4s 3s 13 16 mph 1013.8mb 85f 84f
1:50am 1.6ft 3s 3s 13 16 mph 1014.1mb 85f 84f
12:50am 1.6ft 3s 3s 13 16 mph 1014.1mb 85f 84f
Sun 08/30 11:50pm 1.6ft 4s 3s 13
mph
1014.2mb 85f 84f
10:50pm 1.6ft 3s 3s 13 16 mph 1014.1mb 85f 84f
9:50pm 1.6ft 3s 3s 13 16 mph 1013.7mb 85f 84f
8:50pm 1.6ft 3s 3s 13 16 mph 1013.7mb 85f 84f
7:50pm 1.6ft 4s 3s 13 16 mph 1013.2mb 85f 84f
6:50pm 1.6ft 6s 4s 13 16 mph 1013.4mb 85f 84f
5:50pm 1.3ft 5s 4s 11 13 mph 1013.7mb 85f 84f
4:50pm 1.6ft 4s 4s 11 13 mph 1014mb 85f 84f
3:50pm 1.6ft 5s 4s 9 11 mph 1014.4mb 85f 84f
2:50pm 1.6ft 4s 4s 7 9 mph 1015.1mb 84f 81f
1:50pm 1.6ft 4s 4s 2 7 mph 1015.5mb 84f 81f
12:50pm 1.6ft 5s 4s 13 20 mph 1016mb 84f 82f
11:50am 1.6ft 5s 4s 7 11 mph 1016.3mb 84f 82f
10:50am 2ft 7s 4s 7 9 mph 1016.1mb 85f 83f
9:50am 2ft 7s 4s 7
mph
1015.6mb 85f 84f
8:50am 1.6ft 4s 4s 4 7 mph 1015.3mb 84f 84f
7:50am 1.6ft 4s 4s 7 9 mph 1014.9mb 84f 83f
6:50am 1.3ft 3s 4s 9 11 mph 1014.4mb 85f 83f
5:50am 1.3ft 3s 3s 7 11 mph 1014.1mb 85f 83f
4:50am 1.3ft 3s 3s 9 11 mph 1014.1mb 85f 83f
3:50am 1.3ft 3s 3s 11 13 mph 1014.1mb 85f 83f
2:50am 1.3ft 3s 3s 7 9 mph 1014.5mb 85f 83f
1:50am 1.3ft 3s 3s 9 11 mph 1015.2mb 85f 83f
12:50am 1.3ft 3s 3s 9 11 mph 1015.3mb 85f 83f
Sat 08/29 11:50pm 1.3ft 3s 3s 11 13 mph 1015.3mb 85f 84f
10:50pm 1.3ft 3s 3s 13 16 mph 1015.2mb 85f 84f
9:50pm 1ft 5s 3s 11 13 mph 1014.7mb 85f 84f
8:50pm 1ft 5s 3s 11 13 mph 1014.1mb 85f 84f
7:50pm 1ft 4s 4s 9 13 mph 1013.9mb 85f 83f
6:50pm 1ft 4s 4s 9 11 mph 1014.1mb 85f 84f
5:50pm 1ft 4s 4s 9 11 mph 1014.2mb 85f 83f
4:50pm 1ft 5s 4s 7 9 mph 1014.5mb 86f 83f
3:50pm 1ft 5s 4s 7 9 mph 1015.2mb 86f 83f
2:50pm 1ft 4s 4s 4 7 mph 1015.7mb 87f 83f
1:50pm 1ft 4s 4s 2 4 mph 1016.2mb 86f 83f
12:50pm 1.3ft 5s 4s 2 4 mph 1016.6mb 85f 83f
11:50am 1.3ft 4s 4s 4
mph
1016.8mb 84f 83f
10:50am 1.6ft 5s 4s 4 7 mph 1016.7mb 84f 82f